createdAt,value
2018-03-31T00:00:43.868Z,94138.34
2018-03-31T00:03:12.077Z,94139.22
2018-03-31T00:05:39.932Z,94132.63
2018-03-31T00:08:07.733Z,94129.14
2018-03-31T00:10:35.559Z,94132.91
2018-03-31T00:13:03.331Z,94134.58
2018-03-31T00:15:31.125Z,94139.34
2018-03-31T00:17:58.889Z,94124.97
2018-03-31T00:20:26.718Z,94128.26
2018-03-31T00:22:54.498Z,94134.45
2018-03-31T00:25:22.292Z,94138.69
2018-03-31T00:27:50.057Z,94158.91
2018-03-31T00:30:17.875Z,94153.90
2018-03-31T00:32:45.736Z,94148.50
2018-03-31T00:35:13.535Z,94141.54
2018-03-31T00:37:41.314Z,94147.03
2018-03-31T00:40:09.117Z,94160.18
2018-03-31T00:42:36.895Z,94151.20
2018-03-31T00:45:04.768Z,94142.54
2018-03-31T00:47:32.622Z,94133.96
2018-03-31T00:50:00.537Z,94136.95
2018-03-31T00:52:29.206Z,94144.30
2018-03-31T00:54:57.049Z,94133.81
2018-03-31T00:57:24.912Z,94136.25
2018-03-31T00:59:52.699Z,94144.52
2018-03-31T01:02:20.553Z,94138.39
2018-03-31T01:04:48.403Z,94138.97
2018-03-31T01:07:16.171Z,94134.70
2018-03-31T01:09:43.950Z,94138.27
2018-03-31T01:12:11.746Z,94146.86
2018-03-31T01:14:39.526Z,94135.42
2018-03-31T01:17:07.326Z,94135.52
2018-03-31T01:19:35.094Z,94129.53
2018-03-31T01:22:02.948Z,94128.54
2018-03-31T01:24:30.718Z,94132.57
2018-03-31T01:26:58.560Z,94133.75
2018-03-31T01:29:26.323Z,94125.23
2018-03-31T01:31:54.163Z,94125.63
2018-03-31T01:34:21.991Z,94127.72
2018-03-31T01:36:49.858Z,94134.45
2018-03-31T01:39:17.626Z,94131.75
2018-03-31T01:41:45.485Z,94132.48
2018-03-31T01:44:13.306Z,94133.83
2018-03-31T01:46:41.112Z,94130.73
2018-03-31T01:49:08.887Z,94133.39
2018-03-31T01:51:36.701Z,94137.58
2018-03-31T01:54:04.463Z,94143.34
2018-03-31T01:56:32.259Z,94149.52
2018-03-31T01:59:00.039Z,94145.69
2018-03-31T02:01:27.891Z,94149.56
2018-03-31T02:03:55.780Z,94152.12
2018-03-31T02:06:23.568Z,94159.45
2018-03-31T02:08:51.405Z,94147.25
2018-03-31T02:11:19.260Z,94146.09
2018-03-31T02:13:47.031Z,94144.86
2018-03-31T02:16:14.815Z,94155.50
2018-03-31T02:18:42.603Z,94146.47
2018-03-31T02:21:10.427Z,94142.00
2018-03-31T02:23:38.299Z,94141.31
2018-03-31T02:26:06.065Z,94147.34
2018-03-31T02:28:33.864Z,94138.73
2018-03-31T02:31:01.627Z,94134.41
2018-03-31T02:33:29.454Z,94120.49
2018-03-31T02:35:57.327Z,94130.06
2018-03-31T02:38:25.181Z,94115.89
2018-03-31T02:40:53.044Z,94118.80
2018-03-31T02:43:20.835Z,94113.72
2018-03-31T02:45:48.624Z,94106.06
2018-03-31T02:48:16.407Z,94121.30
2018-03-31T02:50:44.175Z,94120.76
2018-03-31T02:53:11.980Z,94110.32
2018-03-31T02:55:39.751Z,94118.27
2018-03-31T02:58:07.610Z,94118.95
2018-03-31T03:00:35.441Z,94117.39
2018-03-31T03:03:03.323Z,94124.48
2018-03-31T03:05:31.098Z,94127.39
2018-03-31T03:07:58.891Z,94129.00
2018-03-31T03:10:26.719Z,94133.86
2018-03-31T03:12:54.523Z,94127.64
2018-03-31T03:15:22.350Z,94132.68
2018-03-31T03:17:50.122Z,94135.05
2018-03-31T03:20:17.924Z,94127.48
2018-03-31T03:22:45.704Z,94130.90
2018-03-31T03:25:13.496Z,94120.74
2018-03-31T03:27:41.263Z,94119.46
2018-03-31T03:30:09.172Z,94125.86
2018-03-31T03:32:36.931Z,94114.52
2018-03-31T03:35:04.727Z,94111.10
2018-03-31T03:37:32.554Z,94106.33
2018-03-31T03:40:00.410Z,94107.55
2018-03-31T03:42:28.174Z,94111.78
2018-03-31T03:44:55.958Z,94119.13
2018-03-31T03:47:23.740Z,94119.45
2018-03-31T03:49:51.527Z,94112.59
2018-03-31T03:52:19.317Z,94107.11
2018-03-31T03:54:47.202Z,94101.20
2018-03-31T03:57:15.066Z,94109.97
2018-03-31T03:59:42.930Z,94105.16
2018-03-31T04:02:10.819Z,94106.30
2018-03-31T04:04:38.654Z,94100.67
2018-03-31T04:07:06.421Z,94099.52
2018-03-31T04:09:34.232Z,94101.75
2018-03-31T04:12:02.010Z,94097.30
2018-03-31T04:14:29.806Z,94105.88
2018-03-31T04:16:57.608Z,94106.89
2018-03-31T04:19:25.407Z,94104.38
2018-03-31T04:21:53.215Z,94109.81
2018-03-31T04:24:21.076Z,94119.13
2018-03-31T04:26:48.883Z,94117.49
2018-03-31T04:29:16.717Z,94114.41
2018-03-31T04:31:44.545Z,94110.82
2018-03-31T04:34:12.314Z,94119.22
2018-03-31T04:36:40.105Z,94117.34
2018-03-31T04:39:07.987Z,94126.58
2018-03-31T04:41:35.863Z,94123.02
2018-03-31T04:44:03.618Z,94127.30
2018-03-31T04:46:31.407Z,94137.91
2018-03-31T04:48:59.182Z,94147.52
2018-03-31T04:51:26.970Z,94134.96
2018-03-31T04:53:54.756Z,94145.54
2018-03-31T04:56:22.632Z,94142.89
2018-03-31T04:58:50.463Z,94149.55
2018-03-31T05:01:18.272Z,94138.19
2018-03-31T05:03:46.034Z,94136.41
2018-03-31T05:06:13.827Z,94126.74
2018-03-31T05:08:41.595Z,94123.38
2018-03-31T05:11:09.406Z,94108.58
2018-03-31T05:13:37.205Z,94097.40
2018-03-31T05:16:05.012Z,94095.38
2018-03-31T05:18:32.804Z,94106.46
2018-03-31T05:21:00.573Z,94129.12
2018-03-31T05:23:28.369Z,94129.32
2018-03-31T05:25:56.135Z,94123.00
2018-03-31T05:28:23.915Z,94135.62
2018-03-31T05:30:51.742Z,94137.05
2018-03-31T05:33:19.557Z,94139.84
2018-03-31T05:35:47.359Z,94140.08
2018-03-31T05:38:15.232Z,94136.45
2018-03-31T05:40:42.992Z,94136.20
2018-03-31T05:43:10.774Z,94142.11
2018-03-31T05:45:38.558Z,94158.52
2018-03-31T05:48:06.341Z,94176.25
2018-03-31T05:50:34.132Z,94170.06
2018-03-31T05:53:02.022Z,94174.80
2018-03-31T05:55:29.885Z,94165.61
2018-03-31T05:57:57.751Z,94167.12
2018-03-31T06:00:25.590Z,94161.38
2018-03-31T06:02:53.420Z,94165.75
2018-03-31T06:05:21.179Z,94167.88
2018-03-31T06:07:48.969Z,94169.28
2018-03-31T06:10:16.782Z,94162.62
2018-03-31T06:12:44.649Z,94159.53
2018-03-31T06:15:12.511Z,94156.64
2018-03-31T06:17:40.505Z,94146.52
2018-03-31T06:20:08.259Z,94144.80
2018-03-31T06:22:36.055Z,94149.48
2018-03-31T06:25:03.867Z,94150.89
2018-03-31T06:27:31.640Z,94153.72
2018-03-31T06:29:59.506Z,94155.78
2018-03-31T06:32:27.313Z,94156.51
2018-03-31T06:34:55.106Z,94155.86
2018-03-31T06:37:22.910Z,94163.75
2018-03-31T06:39:50.691Z,94167.50
2018-03-31T06:42:18.530Z,94159.04
2018-03-31T06:44:46.339Z,94152.03
2018-03-31T06:47:14.106Z,94155.75
2018-03-31T06:49:41.902Z,94165.55
2018-03-31T06:52:09.715Z,94153.97
2018-03-31T06:54:37.507Z,94155.48
2018-03-31T06:57:05.270Z,94154.23
2018-03-31T06:59:33.074Z,94150.65
2018-03-31T07:02:00.931Z,94146.35
2018-03-31T07:04:28.723Z,94137.38
2018-03-31T07:06:56.486Z,94138.34
2018-03-31T07:09:24.299Z,94147.03
2018-03-31T07:11:53.145Z,94157.64
2018-03-31T07:14:20.942Z,94167.05
2018-03-31T07:16:48.707Z,94161.53
2018-03-31T07:19:16.515Z,94162.81
2018-03-31T07:21:44.392Z,94167.33
2018-03-31T07:24:12.170Z,94166.94
2018-03-31T07:26:39.970Z,94170.73
2018-03-31T07:29:07.799Z,94173.62
2018-03-31T07:31:35.662Z,94172.78
2018-03-31T07:34:03.481Z,94168.92
2018-03-31T07:36:31.385Z,94157.64
2018-03-31T07:38:59.146Z,94150.45
2018-03-31T07:41:27.016Z,94156.22
2018-03-31T07:43:54.777Z,94150.81
2018-03-31T07:46:22.580Z,94147.28
2018-03-31T07:48:50.375Z,94154.98
2018-03-31T07:51:18.179Z,94147.52
2018-03-31T07:53:46.039Z,94154.41
2018-03-31T07:56:13.871Z,94153.06
2018-03-31T07:58:41.646Z,94147.34
2018-03-31T08:01:09.454Z,94142.86
2018-03-31T08:03:37.230Z,94144.02
2018-03-31T08:06:05.062Z,94145.19
2018-03-31T08:08:32.831Z,94146.22
2018-03-31T08:11:00.634Z,94145.95
2018-03-31T08:13:28.399Z,94148.13
2018-03-31T08:15:56.210Z,94145.50
2018-03-31T08:18:23.979Z,94140.51
2018-03-31T08:20:51.749Z,94135.61
2018-03-31T08:23:19.678Z,94135.50
2018-03-31T08:25:47.462Z,94133.30
2018-03-31T08:28:15.240Z,94135.72
2018-03-31T08:30:43.010Z,94121.77
2018-03-31T08:33:10.813Z,94127.03
2018-03-31T08:35:38.634Z,94123.13
2018-03-31T08:38:06.453Z,94127.43
2018-03-31T08:40:34.218Z,94126.73
2018-03-31T08:43:02.129Z,94120.45
2018-03-31T08:45:29.890Z,94119.16
2018-03-31T08:47:57.699Z,94123.19
2018-03-31T08:50:25.477Z,94117.25
2018-03-31T08:52:53.280Z,94121.62
2018-03-31T08:55:21.054Z,94118.41
2018-03-31T08:57:48.876Z,94118.06
2018-03-31T09:00:16.699Z,94122.06
2018-03-31T09:02:44.555Z,94113.81
2018-03-31T09:05:12.327Z,94112.28
2018-03-31T09:07:40.174Z,94112.33
2018-03-31T09:10:07.955Z,94110.73
2018-03-31T09:12:35.814Z,94113.30
2018-03-31T09:15:03.691Z,94111.80
2018-03-31T09:17:31.488Z,94112.34
2018-03-31T09:19:59.320Z,94112.19
2018-03-31T09:22:27.133Z,94107.23
2018-03-31T09:24:54.915Z,94106.63
2018-03-31T09:27:22.701Z,94102.25
2018-03-31T09:29:50.495Z,94110.34
2018-03-31T09:32:18.263Z,94104.79
2018-03-31T09:34:46.098Z,94104.40
2018-03-31T09:37:13.861Z,94109.39
2018-03-31T09:39:41.650Z,94106.73
2018-03-31T09:42:09.434Z,94111.48
2018-03-31T09:44:37.223Z,94107.61
2018-03-31T09:47:05.011Z,94109.44
2018-03-31T09:49:32.799Z,94110.58
2018-03-31T09:52:00.587Z,94117.83
2018-03-31T09:54:28.404Z,94118.51
2018-03-31T09:56:56.274Z,94125.74
2018-03-31T09:59:24.086Z,94131.98
2018-03-31T10:01:51.854Z,94135.39
2018-03-31T10:04:19.652Z,94130.23
2018-03-31T10:06:47.423Z,94126.91
2018-03-31T10:09:15.215Z,94122.41
2018-03-31T10:11:42.991Z,94129.91
2018-03-31T10:14:10.819Z,94133.57
2018-03-31T10:16:38.595Z,94131.12
2018-03-31T10:19:06.391Z,94129.96
2018-03-31T10:21:34.222Z,94129.31
2018-03-31T10:24:02.030Z,94122.81
2018-03-31T10:26:29.854Z,94122.25
2018-03-31T10:28:57.709Z,94125.20
2018-03-31T10:31:25.579Z,94118.52
2018-03-31T10:33:53.459Z,94111.61
2018-03-31T10:36:21.333Z,94109.89
2018-03-31T10:38:49.189Z,94115.02
2018-03-31T10:41:16.987Z,94113.77
2018-03-31T10:43:44.811Z,94111.56
2018-03-31T10:46:12.615Z,94107.79
2018-03-31T10:48:40.369Z,94106.25
2018-03-31T10:51:08.167Z,94096.38
2018-03-31T10:53:35.932Z,94092.66
2018-03-31T10:56:03.742Z,94095.91
2018-03-31T10:58:31.519Z,94092.18
2018-03-31T11:00:59.301Z,94095.53
2018-03-31T11:03:27.233Z,94098.90
2018-03-31T11:05:55.015Z,94092.66
2018-03-31T11:08:22.786Z,94091.48
2018-03-31T11:10:50.586Z,94092.44
2018-03-31T11:13:19.427Z,94085.20
2018-03-31T11:15:47.306Z,94083.77
2018-03-31T11:18:15.085Z,94082.23
2018-03-31T11:20:42.885Z,94083.45
2018-03-31T11:23:10.736Z,94084.50
2018-03-31T11:25:38.510Z,94079.16
2018-03-31T11:28:06.291Z,94072.63
2018-03-31T11:30:34.051Z,94084.50
2018-03-31T11:33:01.957Z,94074.40
2018-03-31T11:35:29.750Z,94080.25
2018-03-31T11:37:57.546Z,94077.08
2018-03-31T11:40:25.371Z,94084.58
2018-03-31T11:42:53.220Z,94087.87
2018-03-31T11:45:20.996Z,94088.11
2018-03-31T11:47:48.835Z,94087.16
2018-03-31T11:50:16.608Z,94086.37
2018-03-31T11:52:44.409Z,94081.87
2018-03-31T11:55:12.234Z,94074.62
2018-03-31T11:57:40.102Z,94068.56
2018-03-31T12:00:07.892Z,94063.40
2018-03-31T12:02:35.787Z,94056.77
2018-03-31T12:05:03.546Z,94053.09
2018-03-31T12:07:31.362Z,94060.30
2018-03-31T12:09:59.215Z,94055.97
2018-03-31T12:12:27.009Z,94064.26
2018-03-31T12:14:54.784Z,94061.79
2018-03-31T12:17:22.583Z,94056.63
2018-03-31T12:19:50.349Z,94052.08
2018-03-31T12:22:18.155Z,94054.33
2018-03-31T12:24:45.929Z,94052.44
2018-03-31T12:27:13.758Z,94049.25
2018-03-31T12:29:41.523Z,94042.73
2018-03-31T12:32:09.396Z,94037.95
2018-03-31T12:34:37.215Z,94038.39
2018-03-31T12:37:04.996Z,94039.80
2018-03-31T12:39:32.811Z,94041.30
2018-03-31T12:42:00.599Z,94038.07
2018-03-31T12:44:28.415Z,94043.87
2018-03-31T12:46:56.182Z,94045.35
2018-03-31T12:49:23.978Z,94040.77
2018-03-31T12:51:51.758Z,94038.92
2018-03-31T12:54:19.580Z,94034.53
2018-03-31T12:56:47.444Z,94039.38
2018-03-31T12:59:15.457Z,94036.28
2018-03-31T13:01:43.232Z,94035.50
2018-03-31T13:04:11.027Z,94037.41
2018-03-31T13:06:38.799Z,94034.44
2018-03-31T13:09:06.671Z,94036.73
2018-03-31T13:11:34.607Z,94031.80
2018-03-31T13:14:02.400Z,94037.64
2018-03-31T13:16:30.277Z,94037.45
2018-03-31T13:18:58.079Z,94024.83
2018-03-31T13:21:25.853Z,94024.73
2018-03-31T13:23:53.655Z,94021.27
2018-03-31T13:26:21.419Z,94018.98
2018-03-31T13:28:49.298Z,94018.09
2018-03-31T13:31:17.075Z,94018.66
2018-03-31T13:33:44.864Z,94012.75
2018-03-31T13:36:12.683Z,94013.45
2018-03-31T13:38:40.599Z,94009.39
2018-03-31T13:41:08.454Z,94008.47
2018-03-31T13:43:36.230Z,94006.18
2018-03-31T13:46:04.071Z,94012.01
2018-03-31T13:48:31.840Z,94007.47
2018-03-31T13:50:59.667Z,94003.78
2018-03-31T13:53:27.463Z,93999.64
2018-03-31T13:55:55.263Z,94005.89
2018-03-31T13:58:23.026Z,93999.71
2018-03-31T14:00:50.818Z,94001.33
2018-03-31T14:03:18.586Z,94003.25
2018-03-31T14:05:46.384Z,94000.97
2018-03-31T14:08:14.177Z,94002.78
2018-03-31T14:10:41.967Z,94004.83
2018-03-31T14:13:09.771Z,94000.95
2018-03-31T14:15:37.748Z,94002.83
2018-03-31T14:18:05.485Z,94004.55
2018-03-31T14:20:33.362Z,94008.20
2018-03-31T14:23:01.137Z,94010.02
2018-03-31T14:25:28.962Z,94011.44
2018-03-31T14:27:56.730Z,94007.05
2018-03-31T14:30:24.550Z,94002.33
2018-03-31T14:32:52.392Z,93988.80
2018-03-31T14:35:20.182Z,93988.06
2018-03-31T14:37:47.975Z,93994.58
2018-03-31T14:40:15.751Z,93989.53
2018-03-31T14:42:43.642Z,93984.77
2018-03-31T14:45:11.510Z,93986.23
2018-03-31T14:47:39.383Z,93988.77
2018-03-31T14:50:07.166Z,93988.22
2018-03-31T14:52:35.006Z,93993.39
2018-03-31T14:55:02.802Z,93989.67
2018-03-31T14:57:30.647Z,93994.58
2018-03-31T14:59:58.430Z,93994.58
2018-03-31T15:02:26.271Z,94002.61
2018-03-31T15:04:54.031Z,93995.18
2018-03-31T15:07:21.915Z,93993.64
2018-03-31T15:09:49.687Z,93991.70
2018-03-31T15:12:17.466Z,93993.59
2018-03-31T15:14:45.246Z,93994.87
2018-03-31T15:17:13.108Z,93994.84
2018-03-31T15:19:41.811Z,93998.15
2018-03-31T15:22:09.605Z,93991.47
2018-03-31T15:24:37.413Z,93988.91
2018-03-31T15:27:05.198Z,93988.34
2018-03-31T15:29:33.031Z,93985.77
2018-03-31T15:32:00.883Z,93987.32
2018-03-31T15:34:28.664Z,93987.19
2018-03-31T15:36:56.440Z,93987.41
2018-03-31T15:39:24.266Z,93990.19
2018-03-31T15:41:52.055Z,93989.00
2018-03-31T15:44:19.905Z,93984.23
2018-03-31T15:46:47.765Z,93984.48
2018-03-31T15:49:15.640Z,93983.39
2018-03-31T15:51:43.402Z,93992.97
2018-03-31T15:54:11.181Z,93994.76
2018-03-31T15:56:39.015Z,93992.92
2018-03-31T15:59:06.874Z,94004.80
2018-03-31T16:01:34.696Z,94007.53
2018-03-31T16:04:02.486Z,94004.66
2018-03-31T16:06:30.282Z,94006.41
2018-03-31T16:08:58.083Z,94003.31
2018-03-31T16:11:25.913Z,94011.42
2018-03-31T16:13:53.700Z,94012.73
2018-03-31T16:16:21.587Z,94016.25
2018-03-31T16:18:49.511Z,94011.00
2018-03-31T16:21:17.283Z,94011.72
2018-03-31T16:23:45.086Z,94016.50
2018-03-31T16:26:13.018Z,94014.86
2018-03-31T16:28:40.802Z,94016.97
2018-03-31T16:31:08.575Z,94018.01
2018-03-31T16:33:36.405Z,94016.45
2018-03-31T16:36:04.283Z,94029.28
2018-03-31T16:38:32.139Z,94024.11
2018-03-31T16:40:59.939Z,94028.89
2018-03-31T16:43:27.705Z,94031.93
2018-03-31T16:45:55.499Z,94032.27
2018-03-31T16:48:23.279Z,94029.20
2018-03-31T16:50:51.066Z,94024.56
2018-03-31T16:53:18.840Z,94035.61
2018-03-31T16:55:46.674Z,94030.28
2018-03-31T16:58:14.435Z,94037.34
2018-03-31T17:00:42.324Z,94039.66
2018-03-31T17:03:10.194Z,94039.64
2018-03-31T17:05:38.062Z,94038.41
2018-03-31T17:08:05.918Z,94041.56
2018-03-31T17:10:33.735Z,94047.69
2018-03-31T17:13:01.564Z,94045.52
2018-03-31T17:15:29.346Z,94049.13
2018-03-31T17:17:57.120Z,94043.39
2018-03-31T17:20:24.961Z,94052.67
2018-03-31T17:22:52.876Z,94048.80
2018-03-31T17:25:20.725Z,94050.33
2018-03-31T17:27:48.554Z,94054.23
2018-03-31T17:30:16.373Z,94058.02
2018-03-31T17:32:44.123Z,94060.30
2018-03-31T17:35:11.948Z,94059.33
2018-03-31T17:37:39.745Z,94062.72
2018-03-31T17:40:07.526Z,94066.72
2018-03-31T17:42:35.318Z,94068.88
2018-03-31T17:45:03.102Z,94072.33
2018-03-31T17:47:30.985Z,94075.27
2018-03-31T17:49:58.846Z,94077.06
2018-03-31T17:52:26.635Z,94083.48
2018-03-31T17:54:54.418Z,94087.74
2018-03-31T17:57:22.211Z,94083.34
2018-03-31T17:59:49.987Z,94084.97
2018-03-31T18:02:17.778Z,94086.64
2018-03-31T18:04:45.618Z,94092.33
2018-03-31T18:07:13.429Z,94098.37
2018-03-31T18:09:41.200Z,94105.27
2018-03-31T18:12:09.011Z,94107.78
2018-03-31T18:14:36.787Z,94115.88
2018-03-31T18:17:04.639Z,94122.88
2018-03-31T18:19:32.402Z,94128.05
2018-03-31T18:22:00.207Z,94133.02
2018-03-31T18:24:27.986Z,94135.47
2018-03-31T18:26:55.782Z,94143.84
2018-03-31T18:29:23.560Z,94147.76
2018-03-31T18:31:51.355Z,94152.77
2018-03-31T18:34:19.195Z,94150.56
2018-03-31T18:36:47.085Z,94158.50
2018-03-31T18:39:14.850Z,94157.05
2018-03-31T18:41:42.743Z,94162.84
2018-03-31T18:44:10.558Z,94170.11
2018-03-31T18:46:38.418Z,94170.30
2018-03-31T18:49:06.282Z,94174.80
2018-03-31T18:51:34.126Z,94176.94
2018-03-31T18:54:01.917Z,94179.70
2018-03-31T18:56:29.696Z,94185.84
2018-03-31T18:58:57.507Z,94201.70
2018-03-31T19:01:25.315Z,94192.31
2018-03-31T19:03:53.175Z,94196.75
2018-03-31T19:06:20.954Z,94209.80
2018-03-31T19:08:48.775Z,94215.76
2018-03-31T19:11:16.648Z,94216.73
2018-03-31T19:13:44.480Z,94216.11
2018-03-31T19:16:12.254Z,94220.29
2018-03-31T19:18:40.131Z,94229.91
2018-03-31T19:21:07.943Z,94239.36
2018-03-31T19:23:35.824Z,94240.09
2018-03-31T19:26:03.678Z,94243.80
2018-03-31T19:28:31.555Z,94235.48
2018-03-31T19:30:59.339Z,94251.44
2018-03-31T19:33:27.143Z,94252.72
2018-03-31T19:36:00.552Z,94257.42
2018-03-31T19:38:28.452Z,94260.70
2018-03-31T19:40:56.238Z,94262.16
2018-03-31T19:43:24.698Z,94255.70
2018-03-31T19:45:51.862Z,94263.41
2018-03-31T19:48:19.650Z,94257.61
2018-03-31T19:50:47.466Z,94272.05
2018-03-31T19:53:15.246Z,94267.27
2018-03-31T19:55:43.049Z,94272.98
2018-03-31T19:58:10.866Z,94271.16
2018-03-31T20:00:38.659Z,94273.33
2018-03-31T20:03:06.445Z,94276.89
2018-03-31T20:05:34.350Z,94274.42
2018-03-31T20:08:02.225Z,94287.41
2018-03-31T20:10:30.082Z,94283.84
2018-03-31T20:12:57.954Z,94286.05
2018-03-31T20:15:25.792Z,94292.02
2018-03-31T20:17:53.558Z,94294.81
2018-03-31T20:20:21.364Z,94292.16
2018-03-31T20:22:49.215Z,94290.45
2018-03-31T20:25:17.111Z,94293.49
2018-03-31T20:27:44.847Z,94296.80
2018-03-31T20:30:12.701Z,94293.75
2018-03-31T20:32:40.547Z,94297.54
2018-03-31T20:35:08.360Z,94304.89
2018-03-31T20:37:36.132Z,94302.30
2018-03-31T20:40:03.971Z,94306.45
2018-03-31T20:42:31.760Z,94299.28
2018-03-31T20:44:59.588Z,94304.72
2018-03-31T20:47:27.384Z,94307.91
2018-03-31T20:49:55.159Z,94303.89
2018-03-31T20:52:22.982Z,94310.89
2018-03-31T20:54:50.854Z,94315.16
2018-03-31T20:57:19.612Z,94315.95
2018-03-31T20:59:47.386Z,94319.39
2018-03-31T21:02:15.273Z,94314.61
2018-03-31T21:04:43.056Z,94316.56
2018-03-31T21:07:10.864Z,94322.77
2018-03-31T21:09:38.667Z,94320.50
2018-03-31T21:12:06.531Z,94319.60
2018-03-31T21:14:34.379Z,94327.42
2018-03-31T21:17:02.267Z,94326.29
2018-03-31T21:19:30.055Z,94330.55
2018-03-31T21:21:57.861Z,94330.59
2018-03-31T21:24:25.646Z,94335.99
2018-03-31T21:26:53.522Z,94340.95
2018-03-31T21:29:21.388Z,94332.52
2018-03-31T21:31:49.274Z,94341.15
2018-03-31T21:34:17.132Z,94341.15
2018-03-31T21:36:44.997Z,94339.05
2018-03-31T21:39:12.869Z,94338.67
2018-03-31T21:41:40.699Z,94347.72
2018-03-31T21:44:08.471Z,94337.30
2018-03-31T21:46:36.303Z,94337.73
2018-03-31T21:49:04.085Z,94343.03
2018-03-31T21:51:31.874Z,94344.27
2018-03-31T21:53:59.681Z,94345.52
2018-03-31T21:56:27.510Z,94340.35
2018-03-31T21:58:55.387Z,94344.22
2018-03-31T22:01:23.180Z,94343.23
2018-03-31T22:03:51.007Z,94345.91
2018-03-31T22:06:18.793Z,94334.55
2018-03-31T22:08:46.645Z,94345.46
2018-03-31T22:11:14.499Z,94343.34
2018-03-31T22:13:47.801Z,94346.20
2018-03-31T22:16:15.575Z,94349.81
2018-03-31T22:18:43.379Z,94353.17
2018-03-31T22:21:11.200Z,94355.42
2018-03-31T22:23:39.008Z,94362.42
2018-03-31T22:26:06.788Z,94359.39
2018-03-31T22:28:34.677Z,94359.83
2018-03-31T22:31:02.468Z,94362.36
2018-03-31T22:33:30.264Z,94366.58
2018-03-31T22:35:58.051Z,94368.58
2018-03-31T22:38:25.855Z,94370.82
2018-03-31T22:40:53.722Z,94374.16
2018-03-31T22:43:21.582Z,94377.09
2018-03-31T22:45:49.364Z,94371.98
2018-03-31T22:48:17.166Z,94374.25
2018-03-31T22:50:44.946Z,94372.56
2018-03-31T22:53:12.756Z,94380.74
2018-03-31T22:55:40.604Z,94378.73
2018-03-31T22:58:08.439Z,94384.73
2018-03-31T23:00:36.227Z,94384.59
2018-03-31T23:03:03.999Z,94380.00
2018-03-31T23:05:31.916Z,94394.55
2018-03-31T23:07:59.590Z,94389.69
2018-03-31T23:10:27.386Z,94391.06
2018-03-31T23:12:55.266Z,94391.42
2018-03-31T23:15:23.126Z,94400.05
2018-03-31T23:17:51.091Z,94395.31
2018-03-31T23:20:18.921Z,94406.91
2018-03-31T23:22:46.733Z,94399.23
2018-03-31T23:25:14.547Z,94411.50
2018-03-31T23:27:42.365Z,94415.71
2018-03-31T23:30:10.224Z,94421.77
2018-03-31T23:32:38.046Z,94419.03
2018-03-31T23:35:05.996Z,94425.36
2018-03-31T23:37:33.828Z,94424.30
2018-03-31T23:40:01.638Z,94434.22
2018-03-31T23:42:29.433Z,94422.89
2018-03-31T23:44:57.253Z,94435.43
2018-03-31T23:47:25.035Z,94446.03
2018-03-31T23:49:52.818Z,94450.96
2018-03-31T23:52:20.626Z,94451.41
2018-03-31T23:54:48.480Z,94452.63
2018-03-31T23:57:16.293Z,94451.02
2018-03-31T23:59:44.058Z,94462.02
